createdAt,value
2023-04-11T00:01:05.527Z,100454.75
2023-04-11T00:03:34.729Z,100448.78
2023-04-11T00:06:05.131Z,100452.28
2023-04-11T00:08:34.033Z,100447.69
2023-04-11T00:11:04.381Z,100446.84
2023-04-11T00:13:33.014Z,100442.41
2023-04-11T00:16:03.512Z,100438.50
2023-04-11T00:18:36.118Z,100439.19
2023-04-11T00:21:05.669Z,100431.53
2023-04-11T00:23:34.547Z,100430.81
2023-04-11T00:26:04.978Z,100432.09
2023-04-11T00:28:33.460Z,100430.69
2023-04-11T00:31:03.525Z,100429.16
2023-04-11T00:33:32.546Z,100431.25
2023-04-11T00:36:01.401Z,100431.25
2023-04-11T00:38:30.487Z,100425.94
2023-04-11T00:40:59.432Z,100424.97
2023-04-11T00:43:29.330Z,100412.16
2023-04-11T00:45:58.404Z,100412.44
2023-04-11T00:48:28.681Z,100413.97
2023-04-11T00:50:57.343Z,100410.47
2023-04-11T00:53:26.369Z,100404.09
2023-04-11T00:55:55.400Z,100407.72
2023-04-11T00:58:24.506Z,100405.50
2023-04-11T01:00:54.922Z,100398.50
2023-04-11T01:03:24.285Z,100399.19
2023-04-11T01:05:53.966Z,100402.28
2023-04-11T01:08:23.707Z,100392.09
2023-04-11T01:10:52.214Z,100392.69
2023-04-11T01:13:21.923Z,100388.81
2023-04-11T01:15:50.857Z,100390.06
2023-04-11T01:18:21.215Z,100388.25
2023-04-11T01:20:49.763Z,100382.38
2023-04-11T01:23:22.648Z,100387.41
2023-04-11T01:25:51.402Z,100385.47
2023-04-11T01:28:20.778Z,100387.28
2023-04-11T01:30:50.647Z,100380.75
2023-04-11T01:33:19.721Z,100379.78
2023-04-11T01:35:50.055Z,100387.72
2023-04-11T01:38:19.044Z,100392.00
2023-04-11T01:40:49.336Z,100386.59
2023-04-11T01:43:17.926Z,100384.91
2023-04-11T01:45:46.994Z,100384.91
2023-04-11T01:48:17.120Z,100378.94
2023-04-11T01:50:47.207Z,100374.34
2023-04-11T01:53:16.140Z,100376.69
2023-04-11T01:55:44.634Z,100373.66
2023-04-11T01:58:14.864Z,100368.06
2023-04-11T02:00:43.780Z,100366.13
2023-04-11T02:03:13.842Z,100366.13
2023-04-11T02:05:44.128Z,100366.97
2023-04-11T02:08:12.988Z,100364.72
2023-04-11T02:10:41.517Z,100352.50
2023-04-11T02:13:10.938Z,100350.69
2023-04-11T02:15:41.844Z,100346.06
2023-04-11T02:18:11.422Z,100342.47
2023-04-11T02:20:40.959Z,100345.81
2023-04-11T02:23:09.890Z,100339.69
2023-04-11T02:25:39.076Z,100347.34
2023-04-11T02:28:08.350Z,100340.94
2023-04-11T02:30:37.431Z,100336.50
2023-04-11T02:33:07.799Z,100338.00
2023-04-11T02:35:36.964Z,100336.34
2023-04-11T02:38:05.822Z,100332.03
2023-04-11T02:40:34.402Z,100329.09
2023-04-11T02:43:03.346Z,100324.94
2023-04-11T02:45:32.902Z,100321.56
2023-04-11T02:48:02.953Z,100318.53
2023-04-11T02:50:36.472Z,100321.19
2023-04-11T02:53:05.147Z,100324.78
2023-04-11T02:55:35.117Z,100323.59
2023-04-11T02:58:04.235Z,100318.03
2023-04-11T03:00:33.129Z,100316.25
2023-04-11T03:03:07.638Z,100316.91
2023-04-11T03:05:43.559Z,100315.13
2023-04-11T03:08:14.054Z,100318.97
2023-04-11T03:10:49.518Z,100313.28
2023-04-11T03:13:18.488Z,100311.88
2023-04-11T03:15:47.387Z,100296.75
2023-04-11T03:18:17.184Z,100293.53
2023-04-11T03:20:50.573Z,100296.34
2023-04-11T03:23:19.799Z,100297.00
2023-04-11T03:25:51.067Z,100298.13
2023-04-11T03:28:21.255Z,100305.59
2023-04-11T03:30:50.695Z,100301.13
2023-04-11T03:33:24.176Z,100297.31
2023-04-11T03:35:54.542Z,100299.19
2023-04-11T03:38:23.106Z,100290.91
2023-04-11T03:40:51.620Z,100296.97
2023-04-11T03:43:23.249Z,100306.66
2023-04-11T03:45:53.766Z,100299.13
2023-04-11T03:48:35.248Z,100296.66
2023-04-11T03:51:09.678Z,100297.31
2023-04-11T03:53:48.360Z,100289.66
2023-04-11T03:56:43.338Z,100287.44
2023-04-11T03:59:19.730Z,100288.50
2023-04-11T04:02:14.980Z,100287.50
2023-04-11T04:04:55.001Z,100281.53
2023-04-11T04:07:29.444Z,100284.91
2023-04-11T04:10:09.457Z,100290.50
2023-04-11T04:12:38.366Z,100293.41
2023-04-11T04:15:15.076Z,100290.78
2023-04-11T04:17:47.734Z,100296.75
2023-04-11T04:20:23.369Z,100290.31
2023-04-11T04:23:00.323Z,100294.19
2023-04-11T04:25:42.314Z,100291.97
2023-04-11T04:28:13.000Z,100294.63
2023-04-11T04:30:42.679Z,100293.50
2023-04-11T04:33:14.826Z,100284.75
2023-04-11T04:35:48.552Z,100283.09
2023-04-11T04:38:19.579Z,100284.13
2023-04-11T04:40:55.173Z,100282.72
2023-04-11T04:43:27.402Z,100282.72
2023-04-11T04:46:16.908Z,100270.50
2023-04-11T04:48:50.905Z,100271.78
2023-04-11T04:51:20.096Z,100276.63
2023-04-11T04:53:50.918Z,100271.63
2023-04-11T04:56:19.888Z,100274.09
2023-04-11T04:58:50.434Z,100269.16
2023-04-11T05:01:21.623Z,100274.72
2023-04-11T05:03:59.605Z,100269.88
2023-04-11T05:06:52.057Z,100277.47
2023-04-11T05:09:22.932Z,100279.31
2023-04-11T05:11:54.308Z,100275.66
2023-04-11T05:14:25.314Z,100286.66
2023-04-11T05:16:53.876Z,100270.50
2023-04-11T05:19:22.985Z,100267.06
2023-04-11T05:21:53.694Z,100265.25
2023-04-11T05:24:24.074Z,100257.03
2023-04-11T05:26:53.334Z,100253.16
2023-04-11T05:29:23.302Z,100256.88
2023-04-11T05:31:52.197Z,100244.91
2023-04-11T05:34:21.680Z,100247.97
2023-04-11T05:36:52.063Z,100241.03
2023-04-11T05:39:23.953Z,100236.94
2023-04-11T05:41:52.975Z,100229.97
2023-04-11T05:44:21.873Z,100231.72
2023-04-11T05:46:50.393Z,100230.53
2023-04-11T05:49:20.290Z,100223.78
2023-04-11T05:51:49.274Z,100224.34
2023-04-11T05:54:33.935Z,100215.09
2023-04-11T05:57:03.401Z,100214.09
2023-04-11T05:59:33.049Z,100214.59
2023-04-11T06:02:02.191Z,100208.81
2023-04-11T06:04:30.981Z,100208.19
2023-04-11T06:07:00.125Z,100204.81
2023-04-11T06:09:28.990Z,100202.25
2023-04-11T06:11:59.348Z,100202.91
2023-04-11T06:14:28.006Z,100198.13
2023-04-11T06:16:56.594Z,100202.63
2023-04-11T06:19:25.554Z,100184.19
2023-04-11T06:21:54.482Z,100182.22
2023-04-11T06:24:37.030Z,100187.91
2023-04-11T06:27:10.151Z,100191.06
2023-04-11T06:29:39.414Z,100189.75
2023-04-11T06:32:08.747Z,100183.81
2023-04-11T06:34:37.364Z,100184.06
2023-04-11T06:37:07.267Z,100173.69
2023-04-11T06:39:37.180Z,100175.16
2023-04-11T06:42:07.671Z,100169.41
2023-04-11T06:44:36.694Z,100170.88
2023-04-11T06:47:05.782Z,100169.50
2023-04-11T06:49:34.460Z,100166.75
2023-04-11T06:52:03.661Z,100168.53
2023-04-11T06:54:32.685Z,100160.78
2023-04-11T06:57:02.333Z,100162.53
2023-04-11T06:59:33.092Z,100168.84
2023-04-11T07:02:02.196Z,100163.22
2023-04-11T07:04:31.053Z,100163.16
2023-04-11T07:07:00.227Z,100144.28
2023-04-11T07:09:29.072Z,100143.47
2023-04-11T07:11:58.074Z,100143.00
2023-04-11T07:14:27.378Z,100124.56
2023-04-11T07:16:57.235Z,100136.97
2023-04-11T07:19:26.236Z,100129.09
2023-04-11T07:21:55.198Z,100124.03
2023-04-11T07:24:24.163Z,100112.88
2023-04-11T07:26:53.931Z,100113.19
2023-04-11T07:29:22.798Z,100112.25
2023-04-11T07:31:51.629Z,100113.78
2023-04-11T07:34:22.049Z,100111.47
2023-04-11T07:36:51.355Z,100106.31
2023-04-11T07:39:20.275Z,100105.66
2023-04-11T07:41:49.187Z,100093.81
2023-04-11T07:44:18.101Z,100090.09
2023-04-11T07:46:46.632Z,100098.34
2023-04-11T07:49:15.701Z,100093.66
2023-04-11T07:51:45.966Z,100087.03
2023-04-11T07:54:15.008Z,100084.78
2023-04-11T07:56:43.926Z,100093.31
2023-04-11T07:59:14.182Z,100093.44
2023-04-11T08:01:42.906Z,100087.44
2023-04-11T08:04:12.603Z,100083.47
2023-04-11T08:06:41.661Z,100070.94
2023-04-11T08:09:11.937Z,100063.16
2023-04-11T08:11:40.968Z,100069.63
2023-04-11T08:14:09.846Z,100063.41
2023-04-11T08:16:38.495Z,100064.50
2023-04-11T08:19:07.409Z,100074.63
2023-04-11T08:21:36.428Z,100077.28
2023-04-11T08:24:05.503Z,100061.59
2023-04-11T08:26:35.999Z,100071.28
2023-04-11T08:29:05.114Z,100064.59
2023-04-11T08:31:33.599Z,100060.22
2023-04-11T08:34:04.428Z,100053.97
2023-04-11T08:36:35.139Z,100041.47
2023-04-11T08:39:04.296Z,100045.53
2023-04-11T08:41:35.213Z,100065.22
2023-04-11T08:44:04.193Z,100013.59
2023-04-11T08:46:34.285Z,100031.06
2023-04-11T08:49:03.273Z,100031.28
2023-04-11T08:51:32.122Z,100014.47
2023-04-11T08:54:03.615Z,100018.66
2023-04-11T08:56:32.596Z,100003.44
2023-04-11T08:59:02.814Z,99998.41
2023-04-11T09:01:33.268Z,100011.72
2023-04-11T09:04:05.326Z,100011.63
2023-04-11T09:06:35.036Z,99998.91
2023-04-11T09:09:06.554Z,100013.78
2023-04-11T09:11:53.286Z,99988.56
2023-04-11T09:14:26.921Z,99994.19
2023-04-11T09:16:56.855Z,99978.50
2023-04-11T09:19:26.193Z,99971.19
2023-04-11T09:21:56.803Z,99959.50
2023-04-11T09:24:26.475Z,99944.22
2023-04-11T09:27:08.911Z,99947.88
2023-04-11T09:29:40.908Z,99940.75
2023-04-11T09:32:11.785Z,99927.31
2023-04-11T09:34:42.606Z,99931.75
2023-04-11T09:37:11.673Z,99929.22
2023-04-11T09:39:40.666Z,99935.09
2023-04-11T09:42:24.684Z,99910.19
2023-04-11T09:44:55.112Z,99924.00
2023-04-11T09:47:24.027Z,99888.00
2023-04-11T09:49:52.984Z,99914.38
2023-04-11T09:52:21.995Z,99895.78
2023-04-11T09:54:52.492Z,99885.81
2023-04-11T09:57:23.839Z,99898.97
2023-04-11T09:59:55.569Z,99884.22
2023-04-11T10:02:24.602Z,99887.09
2023-04-11T10:04:54.787Z,99895.88
2023-04-11T10:07:24.288Z,99887.38
2023-04-11T10:09:53.440Z,99883.78
2023-04-11T10:12:35.315Z,99861.94
2023-04-11T10:15:09.605Z,99872.88
2023-04-11T10:17:40.009Z,99868.72
2023-04-11T10:20:46.620Z,99878.75
2023-04-11T10:23:16.642Z,99862.19
2023-04-11T10:25:53.412Z,99901.00
2023-04-11T10:28:35.626Z,99858.53
2023-04-11T10:31:07.531Z,99864.28
2023-04-11T10:33:37.452Z,99844.19
2023-04-11T10:36:10.499Z,99863.66
2023-04-11T10:38:49.960Z,99858.72
2023-04-11T10:41:31.513Z,99846.19
2023-04-11T10:44:18.429Z,99830.50
2023-04-11T10:46:50.593Z,99851.47
2023-04-11T10:49:37.082Z,99841.56
2023-04-11T10:52:20.633Z,99852.22
2023-04-11T10:54:50.384Z,99837.06
2023-04-11T10:57:19.694Z,99868.94
2023-04-11T10:59:58.885Z,99840.03
2023-04-11T11:02:39.491Z,99834.50
2023-04-11T11:05:20.615Z,99828.53
2023-04-11T11:07:54.020Z,99844.09
2023-04-11T11:10:46.351Z,99853.69
2023-04-11T11:13:16.364Z,99838.53
2023-04-11T11:15:49.620Z,99837.91
2023-04-11T11:18:20.085Z,99834.22
2023-04-11T11:20:50.212Z,99825.78
2023-04-11T11:23:19.149Z,99814.09
2023-04-11T11:25:54.838Z,99820.22
2023-04-11T11:28:24.154Z,99803.00
2023-04-11T11:30:55.575Z,99780.47
2023-04-11T11:33:28.486Z,99798.50
2023-04-11T11:36:00.164Z,99794.00
2023-04-11T11:38:30.427Z,99797.84
2023-04-11T11:40:59.651Z,99790.22
2023-04-11T11:43:28.620Z,99784.88
2023-04-11T11:46:12.144Z,99788.75
2023-04-11T11:48:43.525Z,99780.22
2023-04-11T11:51:12.525Z,99789.19
2023-04-11T11:53:41.744Z,99789.84
2023-04-11T11:56:15.130Z,99778.69
2023-04-11T11:58:45.402Z,99776.53
2023-04-11T12:01:17.180Z,99772.38
2023-04-11T12:03:51.647Z,99790.00
2023-04-11T12:06:21.210Z,99780.88
2023-04-11T12:08:54.037Z,99775.09
2023-04-11T12:11:25.318Z,99776.31
2023-04-11T12:13:54.915Z,99784.56
2023-04-11T12:16:24.716Z,99782.09
2023-04-11T12:18:55.208Z,99787.13
2023-04-11T12:21:23.697Z,99774.22
2023-04-11T12:23:52.564Z,99768.28
2023-04-11T12:26:21.886Z,99758.75
2023-04-11T12:28:51.201Z,99742.97
2023-04-11T12:31:20.732Z,99760.78
2023-04-11T12:33:49.679Z,99755.94
2023-04-11T12:36:20.084Z,99732.34
2023-04-11T12:38:49.103Z,99734.75
2023-04-11T12:43:49.344Z,99733.69
2023-04-11T12:46:18.903Z,99737.88
2023-04-11T12:48:47.806Z,99725.69
2023-04-11T12:51:16.704Z,99717.78
2023-04-11T12:53:47.111Z,99714.94
2023-04-11T12:56:15.764Z,99726.44
2023-04-11T12:58:45.066Z,99720.91
2023-04-11T13:01:13.917Z,99716.63
2023-04-11T13:03:42.927Z,99705.09
2023-04-11T13:06:11.870Z,99710.38
2023-04-11T13:08:40.431Z,99706.53
2023-04-11T13:11:10.299Z,99720.50
2023-04-11T13:13:38.390Z,99706.22
2023-04-11T13:16:08.568Z,99703.34
2023-04-11T13:18:37.176Z,99697.88
2023-04-11T13:21:06.292Z,99696.84
2023-04-11T13:23:34.983Z,99687.19
2023-04-11T13:26:03.695Z,99679.75
2023-04-11T13:28:34.824Z,99680.75
2023-04-11T13:31:03.473Z,99671.34
2023-04-11T13:33:32.098Z,99678.69
2023-04-11T13:36:00.784Z,99673.59
2023-04-11T13:38:29.325Z,99662.50
2023-04-11T13:40:57.845Z,99659.63
2023-04-11T13:43:25.998Z,99671.94
2023-04-11T13:45:56.147Z,99669.47
2023-04-11T13:48:24.710Z,99666.16
2023-04-11T13:50:53.129Z,99656.53
2023-04-11T13:53:21.652Z,99661.06
2023-04-11T13:55:49.785Z,99651.78
2023-04-11T13:58:18.405Z,99653.34
2023-04-11T14:00:47.325Z,99664.34
2023-04-11T14:03:17.956Z,99650.97
2023-04-11T14:05:46.631Z,99636.16
2023-04-11T14:08:15.304Z,99647.06
2023-04-11T14:10:44.530Z,99634.03
2023-04-11T14:13:13.094Z,99627.63
2023-04-11T14:15:41.634Z,99635.78
2023-04-11T14:18:10.234Z,99634.72
2023-04-11T14:20:40.497Z,99626.69
2023-04-11T14:23:10.449Z,99624.59
2023-04-11T14:25:38.619Z,99624.41
2023-04-11T14:28:07.319Z,99628.81
2023-04-11T14:30:36.322Z,99629.31
2023-04-11T14:33:05.139Z,99632.59
2023-04-11T14:35:33.760Z,99622.13
2023-04-11T14:38:04.442Z,99629.94
2023-04-11T14:40:32.851Z,99626.28
2023-04-11T14:43:01.486Z,99638.44
2023-04-11T14:45:30.084Z,99612.06
2023-04-11T14:47:58.697Z,99611.34
2023-04-11T14:50:28.547Z,99629.47
2023-04-11T14:52:57.239Z,99610.41
2023-04-11T14:55:27.100Z,99599.72
2023-04-11T14:57:56.847Z,99588.09
2023-04-11T15:00:25.532Z,99601.81
2023-04-11T15:02:55.112Z,99591.16
2023-04-11T15:05:24.642Z,99591.31
2023-04-11T15:07:53.968Z,99593.91
2023-04-11T15:10:24.328Z,99593.47
2023-04-11T15:12:54.223Z,99596.38
2023-04-11T15:15:23.337Z,99583.94
2023-04-11T15:18:24.596Z,99581.75
2023-04-11T15:20:53.714Z,99577.22
2023-04-11T15:23:22.565Z,99576.34
2023-04-11T15:25:54.539Z,99567.44
2023-04-11T15:28:25.197Z,99563.56
2023-04-11T15:30:55.570Z,99577.81
2023-04-11T15:33:24.764Z,99560.31
2023-04-11T15:35:54.398Z,99568.69
2023-04-11T15:38:23.439Z,99567.78
2023-04-11T15:40:51.932Z,99568.16
2023-04-11T15:43:20.719Z,99574.78
2023-04-11T15:45:52.609Z,99556.78
2023-04-11T15:48:21.464Z,99553.03
2023-04-11T15:50:50.879Z,99550.66
2023-04-11T15:53:19.588Z,99550.13
2023-04-11T15:55:49.082Z,99544.66
2023-04-11T15:58:17.905Z,99549.94
2023-04-11T16:00:47.178Z,99559.78
2023-04-11T16:03:18.032Z,99553.16
2023-04-11T16:05:51.052Z,99548.72
2023-04-11T16:08:20.261Z,99546.53
2023-04-11T16:10:49.021Z,99554.28
2023-04-11T16:13:19.007Z,99549.06
2023-04-11T16:15:47.904Z,99554.84
2023-04-11T16:18:18.651Z,99542.63
2023-04-11T16:20:47.634Z,99540.59
2023-04-11T16:23:16.463Z,99535.81
2023-04-11T16:25:45.548Z,99532.34
2023-04-11T16:28:15.433Z,99537.41
2023-04-11T16:30:44.185Z,99535.06
2023-04-11T16:33:12.839Z,99534.66
2023-04-11T16:35:43.033Z,99529.25
2023-04-11T16:38:11.656Z,99533.31
2023-04-11T16:40:39.867Z,99529.81
2023-04-11T16:43:08.717Z,99528.97
2023-04-11T16:45:37.471Z,99527.13
2023-04-11T16:48:07.298Z,99525.31
2023-04-11T16:50:36.220Z,99524.25
2023-04-11T16:53:06.645Z,99523.00
2023-04-11T16:55:35.056Z,99525.72
2023-04-11T16:58:03.740Z,99522.59
2023-04-11T17:00:33.597Z,99526.44
2023-04-11T17:03:03.058Z,99517.44
2023-04-11T17:05:34.266Z,99516.63
2023-04-11T17:08:02.919Z,99510.03
2023-04-11T17:10:34.232Z,99521.13
2023-04-11T17:13:03.881Z,99508.59
2023-04-11T17:15:32.744Z,99512.91
2023-04-11T17:18:01.463Z,99511.00
2023-04-11T17:20:30.848Z,99506.28
2023-04-11T17:22:59.964Z,99513.16
2023-04-11T17:25:30.194Z,99509.06
2023-04-11T17:28:01.794Z,99507.88
2023-04-11T17:30:32.562Z,99513.16
2023-04-11T17:33:01.799Z,99511.47
2023-04-11T17:35:30.895Z,99515.13
2023-04-11T17:38:00.750Z,99517.16
2023-04-11T17:40:29.317Z,99519.38
2023-04-11T17:42:58.416Z,99518.13
2023-04-11T17:45:28.836Z,99520.31
2023-04-11T17:47:58.028Z,99514.53
2023-04-11T17:50:27.129Z,99516.19
2023-04-11T17:52:56.481Z,99514.69
2023-04-11T17:55:25.429Z,99520.38
2023-04-11T17:57:54.420Z,99517.75
2023-04-11T18:00:23.524Z,99510.09
2023-04-11T18:02:57.739Z,99525.97
2023-04-11T18:05:29.400Z,99529.91
2023-04-11T18:07:59.614Z,99529.53
2023-04-11T18:10:30.411Z,99526.63
2023-04-11T18:13:00.116Z,99527.25
2023-04-11T18:15:29.082Z,99530.81
2023-04-11T18:17:59.441Z,99528.50
2023-04-11T18:20:28.108Z,99533.09
2023-04-11T18:22:57.582Z,99534.63
2023-04-11T18:25:26.566Z,99538.59
2023-04-11T18:27:55.379Z,99535.28
2023-04-11T18:30:24.446Z,99540.56
2023-04-11T18:32:56.062Z,99546.25
2023-04-11T18:35:28.032Z,99543.03
2023-04-11T18:37:56.841Z,99541.13
2023-04-11T18:40:26.519Z,99546.50
2023-04-11T18:42:56.427Z,99539.41
2023-04-11T18:45:25.954Z,99540.72
2023-04-11T18:47:54.953Z,99549.63
2023-04-11T18:50:24.164Z,99546.69
2023-04-11T18:52:56.554Z,99546.19
2023-04-11T18:55:27.654Z,99544.13
2023-04-11T18:57:59.505Z,99542.94
2023-04-11T19:00:31.402Z,99537.06
2023-04-11T19:03:01.012Z,99541.13
2023-04-11T19:05:30.863Z,99544.06
2023-04-11T19:08:01.838Z,99538.19
2023-04-11T19:10:30.513Z,99535.44
2023-04-11T19:12:59.350Z,99534.03
2023-04-11T19:15:29.069Z,99545.69
2023-04-11T19:17:58.467Z,99545.75
2023-04-11T19:20:27.953Z,99545.03
2023-04-11T19:22:56.509Z,99541.75
2023-04-11T19:25:27.518Z,99548.41
2023-04-11T19:27:56.440Z,99553.94
2023-04-11T19:30:25.430Z,99544.84
2023-04-11T19:32:54.406Z,99559.06
2023-04-11T19:35:24.505Z,99549.66
2023-04-11T19:37:53.311Z,99551.13
2023-04-11T19:40:23.653Z,99549.22
2023-04-11T19:42:53.724Z,99548.84
2023-04-11T19:45:23.115Z,99543.94
2023-04-11T19:47:52.039Z,99545.28
2023-04-11T19:50:23.003Z,99541.63
2023-04-11T19:52:51.925Z,99549.28
2023-04-11T19:55:21.159Z,99549.88
2023-04-11T19:57:50.005Z,99553.06
2023-04-11T20:00:20.698Z,99550.50
2023-04-11T20:02:50.026Z,99551.91
2023-04-11T20:05:21.808Z,99553.50
2023-04-11T20:07:50.467Z,99561.75
2023-04-11T20:10:19.529Z,99554.66
2023-04-11T20:12:48.732Z,99548.16
2023-04-11T20:15:20.401Z,99558.69
2023-04-11T20:17:49.090Z,99541.38
2023-04-11T20:20:19.659Z,99548.66
2023-04-11T20:22:48.290Z,99550.31
2023-04-11T20:25:17.156Z,99538.03
2023-04-11T20:27:46.043Z,99534.66
2023-04-11T20:30:17.325Z,99539.16
2023-04-11T20:32:47.840Z,99541.91
2023-04-11T20:35:16.789Z,99542.47
2023-04-11T20:37:45.416Z,99537.88
2023-04-11T20:40:14.805Z,99526.13
2023-04-11T20:42:45.961Z,99534.31
2023-04-11T20:45:17.217Z,99534.94
2023-04-11T20:47:49.963Z,99540.91
2023-04-11T20:50:20.000Z,99538.53
2023-04-11T20:52:54.399Z,99540.44
2023-04-11T20:55:25.264Z,99551.66
2023-04-11T20:57:54.400Z,99546.75
2023-04-11T21:00:23.549Z,99556.50
2023-04-11T21:02:54.344Z,99554.56
2023-04-11T21:05:25.084Z,99559.56
2023-04-11T21:07:54.581Z,99558.47
2023-04-11T21:10:23.766Z,99561.19
2023-04-11T21:12:54.111Z,99556.56
2023-04-11T21:15:24.473Z,99552.50
2023-04-11T21:17:55.015Z,99551.66
2023-04-11T21:20:24.384Z,99552.75
2023-04-11T21:22:54.221Z,99559.88
2023-04-11T21:25:24.530Z,99558.25
2023-04-11T21:27:53.398Z,99552.84
2023-04-11T21:30:22.335Z,99554.22
2023-04-11T21:32:52.094Z,99561.47
2023-04-11T21:35:23.480Z,99561.28
2023-04-11T21:37:51.996Z,99558.19
2023-04-11T21:40:20.904Z,99565.16
2023-04-11T21:42:49.849Z,99559.97
2023-04-11T21:45:18.864Z,99559.47
2023-04-11T21:47:47.887Z,99551.41
2023-04-11T21:50:16.960Z,99551.50
2023-04-11T21:52:47.405Z,99549.97
2023-04-11T21:55:16.961Z,99552.28
2023-04-11T21:57:45.858Z,99554.84
2023-04-11T22:00:15.629Z,99554.16
2023-04-11T22:02:44.827Z,99552.03
2023-04-11T22:05:14.094Z,99555.16
2023-04-11T22:07:51.391Z,99555.16
2023-04-11T22:10:32.465Z,99566.09
2023-04-11T22:13:07.020Z,99559.66
2023-04-11T22:15:38.443Z,99560.97
2023-04-11T22:18:09.574Z,99557.19
2023-04-11T22:20:40.689Z,99556.72
2023-04-11T22:23:10.367Z,99553.22
2023-04-11T22:25:42.349Z,99552.88
2023-04-11T22:28:15.674Z,99553.72
2023-04-11T22:30:46.458Z,99549.91
2023-04-11T22:33:15.527Z,99544.44
2023-04-11T22:35:45.181Z,99540.00
2023-04-11T22:38:14.214Z,99540.66
2023-04-11T22:40:44.611Z,99538.16
2023-04-11T22:43:13.485Z,99542.81
2023-04-11T22:45:43.055Z,99549.72
2023-04-11T22:48:13.959Z,99541.50
2023-04-11T22:50:43.762Z,99545.78
2023-04-11T22:53:14.151Z,99549.56
2023-04-11T22:55:45.165Z,99544.81
2023-04-11T22:58:14.075Z,99543.78
2023-04-11T23:00:43.789Z,99543.28
2023-04-11T23:03:14.155Z,99542.94
2023-04-11T23:05:43.299Z,99545.28
2023-04-11T23:08:12.170Z,99538.31
2023-04-11T23:10:40.668Z,99543.28
2023-04-11T23:13:10.979Z,99548.09
2023-04-11T23:15:39.645Z,99540.16
2023-04-11T23:18:08.862Z,99536.81
2023-04-11T23:20:38.244Z,99533.69
2023-04-11T23:23:07.220Z,99533.84
2023-04-11T23:25:40.221Z,99534.69
2023-04-11T23:28:10.772Z,99539.16
2023-04-11T23:30:40.432Z,99534.19
2023-04-11T23:33:09.493Z,99544.31
2023-04-11T23:35:38.505Z,99543.28
2023-04-11T23:38:07.786Z,99553.41
2023-04-11T23:40:36.308Z,99542.47
2023-04-11T23:43:05.288Z,99542.13
2023-04-11T23:45:35.988Z,99536.50
2023-04-11T23:48:05.207Z,99534.22
2023-04-11T23:50:34.128Z,99537.34
2023-04-11T23:53:03.151Z,99540.81
2023-04-11T23:55:32.340Z,99543.63
2023-04-11T23:58:01.269Z,99539.63
